Time;durP1;ratioP1;P1;durP2;ratioP2;P2;SDS_P1;SDS_P2;PMS_P1;PMS_P2;Temp;Humidity;BMP_temperature;BMP_pressure;BME280_temperature;BME280_humidity;BME280_pressure;Samples;Min_cycle;Max_cycle;Signal;HPM_P1;HPM_P2
2024/01/06 00:00:25;;;;;;;46.73;24.43;;;0.30;99.90;;;;;;4261599;27;20299;-61
2024/01/06 00:02:27;;;;;;;46.73;25.33;;;0.30;99.90;;;;;;4261623;27;20316;-64
2024/01/06 00:04:28;;;;;;;47.00;23.30;;;0.30;99.90;;;;;;4261432;27;20254;-63
2024/01/06 00:06:29;;;;;;;45.20;24.40;;;0.40;99.90;;;;;;4260828;27;20691;-61
2024/01/06 00:08:32;;;;;;;45.90;25.50;;;0.40;99.90;;;;;;4261499;27;20271;-63
2024/01/06 00:10:33;;;;;;;47.10;23.93;;;0.50;99.90;;;;;;4259814;27;20266;-61
2024/01/06 00:12:34;;;;;;;45.07;22.33;;;0.60;99.90;;;;;;4261012;27;20343;-62
2024/01/06 00:14:36;;;;;;;48.00;22.13;;;0.60;99.90;;;;;;4260522;27;20263;-61
2024/01/06 00:16:37;;;;;;;42.00;22.67;;;0.70;99.90;;;;;;4260522;27;20266;-63
2024/01/06 00:18:39;;;;;;;42.13;21.40;;;0.70;99.90;;;;;;4260746;27;20311;-61
2024/01/06 00:20:40;;;;;;;42.57;20.73;;;0.80;99.90;;;;;;4260871;27;20741;-63
2024/01/06 00:22:43;;;;;;;50.00;23.73;;;0.80;99.90;;;;;;4261114;27;20770;-62
2024/01/06 00:24:45;;;;;;;45.13;24.93;;;0.80;99.90;;;;;;4257877;27;20278;-62
2024/01/06 00:26:46;;;;;;;44.93;22.57;;;0.70;99.90;;;;;;4260430;27;20367;-63
2024/01/06 00:28:49;;;;;;;53.50;26.27;;;0.70;99.90;;;;;;4259748;27;20274;-63
2024/01/06 00:30:50;;;;;;;46.63;21.77;;;0.60;99.90;;;;;;4261320;27;20274;-63
2024/01/06 00:32:51;;;;;;;47.73;23.17;;;0.50;99.90;;;;;;4260703;27;20714;-63
2024/01/06 00:34:52;;;;;;;44.90;22.13;;;0.50;99.90;;;;;;4260570;27;20748;-61
2024/01/06 00:36:53;;;;;;;39.30;20.43;;;0.50;99.90;;;;;;4260423;27;20263;-61
2024/01/06 00:38:54;;;;;;;39.67;20.03;;;0.50;99.90;;;;;;4261008;27;20742;-63
2024/01/06 00:40:56;;;;;;;38.50;19.33;;;0.50;99.90;;;;;;4261041;27;20652;-62
2024/01/06 00:42:57;;;;;;;36.77;19.90;;;0.50;99.90;;;;;;4261117;27;20726;-60
2024/01/06 00:44:58;;;;;;;44.03;21.50;;;0.50;99.90;;;;;;4261162;27;20742;-63
2024/01/06 00:46:59;;;;;;;36.77;20.67;;;0.50;99.90;;;;;;4260665;27;20754;-61
2024/01/06 00:49:00;;;;;;;39.33;19.90;;;0.40;99.90;;;;;;4259612;27;20299;-61
2024/01/06 00:51:02;;;;;;;36.73;19.20;;;0.50;99.90;;;;;;4260900;27;20691;-64
2024/01/06 00:53:03;;;;;;;42.93;21.97;;;0.30;99.90;;;;;;4260906;27;20808;-63
2024/01/06 00:55:04;;;;;;;43.00;20.60;;;0.30;99.90;;;;;;4260306;27;20722;-61
2024/01/06 00:57:05;;;;;;;43.60;22.27;;;0.20;99.90;;;;;;4260716;27;20258;-63
2024/01/06 00:59:07;;;;;;;44.10;20.30;;;0.20;99.90;;;;;;4260574;27;20275;-63
2024/01/06 01:01:08;;;;;;;43.63;20.60;;;0.10;99.90;;;;;;4260772;27;20752;-63
2024/01/06 01:03:09;;;;;;;41.93;19.93;;;0.10;99.90;;;;;;4260603;27;20311;-62
2024/01/06 01:05:10;;;;;;;39.33;19.73;;;0.00;99.90;;;;;;4260042;27;20684;-63
2024/01/06 01:07:12;;;;;;;38.63;20.43;;;0.00;99.90;;;;;;4260682;27;20439;-63
2024/01/06 01:09:14;;;;;;;29.63;17.00;;;0.00;99.90;;;;;;4260736;27;20315;-61
2024/01/06 01:11:15;;;;;;;34.73;17.23;;;0.00;99.90;;;;;;4260788;27;20267;-61
2024/01/06 01:13:16;;;;;;;32.00;17.67;;;0.00;99.90;;;;;;4260589;27;20258;-60
2024/01/06 01:15:17;;;;;;;32.33;16.60;;;0.00;99.90;;;;;;4260592;27;20331;-64
2024/01/06 01:17:19;;;;;;;35.83;17.30;;;0.00;99.90;;;;;;4260802;27;20331;-63
2024/01/06 01:19:20;;;;;;;31.33;16.63;;;0.00;99.90;;;;;;4260499;27;20282;-62
2024/01/06 01:21:21;;;;;;;30.43;15.57;;;-0.10;99.90;;;;;;4260378;27;20696;-63
2024/01/06 01:23:22;;;;;;;54.50;26.30;;;-0.20;99.90;;;;;;4259246;27;20300;-63
2024/01/06 01:25:24;;;;;;;41.10;20.90;;;-0.40;99.90;;;;;;4260448;27;20308;-61
2024/01/06 01:27:26;;;;;;;36.93;19.70;;;-0.50;99.90;;;;;;4260905;27;20332;-60
2024/01/06 01:29:27;;;;;;;32.90;18.27;;;-0.60;99.90;;;;;;4263974;27;20271;-63
2024/01/06 01:31:28;;;;;;;35.60;17.97;;;-0.60;99.90;;;;;;4264292;27;20267;-61
2024/01/06 01:33:29;;;;;;;30.87;16.63;;;-0.50;99.90;;;;;;4263423;27;20727;-61
2024/01/06 01:35:31;;;;;;;28.47;16.70;;;-0.50;99.90;;;;;;4263299;27;20700;-60
2024/01/06 01:37:32;;;;;;;31.23;17.23;;;-0.50;99.90;;;;;;4263893;27;20311;-62
2024/01/06 01:39:34;;;;;;;28.57;15.13;;;-0.50;99.90;;;;;;4263977;27;20254;-63
2024/01/06 01:41:35;;;;;;;35.00;16.20;;;-0.40;99.90;;;;;;4263883;27;20319;-64
2024/01/06 01:43:36;;;;;;;35.80;16.33;;;-0.40;99.90;;;;;;4263665;27;20311;-62
2024/01/06 01:45:38;;;;;;;29.97;16.07;;;-0.40;99.90;;;;;;4263583;27;20311;-61
2024/01/06 01:47:39;;;;;;;32.17;17.90;;;-0.40;99.90;;;;;;4262945;27;20302;-61
2024/01/06 01:49:40;;;;;;;28.47;16.40;;;-0.40;99.90;;;;;;4263480;27;20255;-62
2024/01/06 01:51:44;;;;;;;29.37;15.90;;;-0.40;99.90;;;;;;4263563;27;20247;-63
2024/01/06 01:53:45;;;;;;;32.47;16.47;;;-0.40;99.90;;;;;;4263485;27;20278;-64
2024/01/06 01:55:47;;;;;;;32.47;16.33;;;-0.30;99.90;;;;;;4263123;27;20279;-63
2024/01/06 01:57:49;;;;;;;30.07;16.33;;;-0.30;99.90;;;;;;4263517;27;20787;-61
2024/01/06 01:59:51;;;;;;;35.33;16.60;;;-0.30;99.90;;;;;;4263529;27;20304;-63
2024/01/06 02:01:52;;;;;;;30.00;15.30;;;-0.30;99.90;;;;;;4262720;27;20279;-63
2024/01/06 02:03:53;;;;;;;31.40;15.30;;;-0.30;99.90;;;;;;4263282;27;20668;-62
2024/01/06 02:05:54;;;;;;;36.17;18.03;;;-0.30;99.90;;;;;;4263433;27;20750;-63
2024/01/06 02:07:57;;;;;;;28.13;15.50;;;-0.30;99.90;;;;;;4263177;27;20826;-63
2024/01/06 02:09:58;;;;;;;34.10;17.83;;;-0.30;99.90;;;;;;4263026;27;20742;-61
2024/01/06 02:11:59;;;;;;;35.83;16.70;;;-0.30;99.90;;;;;;4262688;27;20292;-61
2024/01/06 02:14:01;;;;;;;31.00;16.40;;;-0.30;99.90;;;;;;4263025;27;20335;-64
2024/01/06 02:16:06;;;;;;;34.60;18.03;;;-0.30;99.90;;;;;;4263152;27;20267;-63
2024/01/06 02:18:07;;;;;;;41.40;20.23;;;-0.20;99.90;;;;;;4262370;27;20652;-62
2024/01/06 02:20:09;;;;;;;39.50;19.27;;;-0.30;99.90;;;;;;4263293;27;20778;-60
2024/01/06 02:22:10;;;;;;;41.53;18.30;;;-0.20;99.90;;;;;;4263189;27;20242;-63
2024/01/06 02:24:12;;;;;;;41.30;20.00;;;-0.20;99.90;;;;;;4263208;27;20278;-62
2024/01/06 02:26:14;;;;;;;34.83;17.47;;;-0.20;99.90;;;;;;4262314;27;20742;-62
2024/01/06 02:28:15;;;;;;;34.70;18.57;;;-0.10;99.90;;;;;;4260913;27;20378;-62
2024/01/06 02:30:17;;;;;;;32.83;16.90;;;-0.10;99.90;;;;;;4262717;27;20267;-64
2024/01/06 02:32:18;;;;;;;32.63;17.00;;;0.00;99.90;;;;;;4262880;27;20327;-63
2024/01/06 02:34:19;;;;;;;33.03;17.77;;;0.00;99.90;;;;;;4262775;27;20653;-61
2024/01/06 02:36:20;;;;;;;32.93;16.70;;;0.00;99.90;;;;;;4262853;27;20648;-64
2024/01/06 02:38:21;;;;;;;31.53;17.20;;;0.00;99.90;;;;;;4262392;27;20603;-61
2024/01/06 02:40:23;;;;;;;34.20;17.60;;;-0.10;99.90;;;;;;4261794;27;20390;-62
2024/01/06 02:42:25;;;;;;;34.77;18.43;;;-0.10;99.90;;;;;;4261890;27;20275;-61
2024/01/06 02:44:26;;;;;;;32.80;17.03;;;-0.10;99.90;;;;;;4262101;27;20653;-62
2024/01/06 02:46:27;;;;;;;27.30;15.53;;;-0.10;99.90;;;;;;4261310;27;20335;-61
2024/01/06 02:48:30;;;;;;;28.70;15.13;;;0.00;99.90;;;;;;4262760;27;20262;-60
2024/01/06 02:50:31;;;;;;;25.77;14.97;;;0.00;99.90;;;;;;4262795;27;20378;-61
2024/01/06 02:52:33;;;;;;;31.23;16.83;;;0.00;99.90;;;;;;4260810;27;20243;-60
2024/01/06 02:54:34;;;;;;;24.50;13.20;;;-0.10;99.90;;;;;;4254006;27;20255;-60
2024/01/06 02:56:35;;;;;;;21.30;12.30;;;-0.10;99.90;;;;;;4262597;27;20719;-61
2024/01/06 02:58:36;;;;;;;26.97;13.73;;;0.00;99.90;;;;;;4262638;27;20716;-62
2024/01/06 03:00:37;;;;;;;26.87;12.97;;;0.00;99.90;;;;;;4261797;27;20267;-61
2024/01/06 03:02:41;;;;;;;25.93;12.53;;;-0.10;99.90;;;;;;4261987;27;20267;-64
2024/01/06 03:04:43;;;;;;;25.90;13.73;;;-0.10;99.90;;;;;;4260802;27;20282;-61
2024/01/06 03:06:46;;;;;;;27.37;14.03;;;-0.10;99.90;;;;;;4261089;27;20743;-62
2024/01/06 03:08:47;;;;;;;27.40;14.73;;;0.00;99.90;;;;;;4262405;27;20267;-61
2024/01/06 03:10:48;;;;;;;30.63;15.60;;;0.00;99.90;;;;;;4262372;27;20274;-63
2024/01/06 03:12:50;;;;;;;23.00;13.47;;;0.00;99.90;;;;;;4262331;27;20596;-62
2024/01/06 03:14:51;;;;;;;24.90;13.13;;;0.00;99.90;;;;;;4262432;27;20262;-62
2024/01/06 03:16:53;;;;;;;25.23;13.97;;;0.00;99.90;;;;;;4262105;27;20274;-62
2024/01/06 03:18:54;;;;;;;31.73;15.07;;;0.10;99.90;;;;;;4261447;27;20323;-63
2024/01/06 03:20:55;;;;;;;23.07;12.60;;;0.10;99.90;;;;;;4262304;27;20319;-60
2024/01/06 03:22:56;;;;;;;24.47;13.27;;;0.20;99.90;;;;;;4262271;27;20275;-63
2024/01/06 03:24:57;;;;;;;24.33;12.77;;;0.20;99.90;;;;;;4262284;27;20278;-62
2024/01/06 03:26:58;;;;;;;25.80;12.43;;;0.30;99.90;;;;;;4262132;27;20290;-62
2024/01/06 03:28:59;;;;;;;23.33;12.53;;;0.30;99.90;;;;;;4261177;27;20708;-61
2024/01/06 03:31:01;;;;;;;26.17;14.43;;;0.40;99.90;;;;;;4261843;27;20301;-61
2024/01/06 03:33:02;;;;;;;21.67;12.93;;;0.40;99.90;;;;;;4261896;27;20308;-63
2024/01/06 03:35:06;;;;;;;22.27;12.93;;;0.40;99.90;;;;;;4261154;27;20300;-62
2024/01/06 03:37:07;;;;;;;22.77;12.30;;;0.40;99.90;;;;;;4261138;27;20275;-63
2024/01/06 03:39:10;;;;;;;23.10;12.13;;;0.50;99.90;;;;;;4259594;27;20338;-60
2024/01/06 03:41:11;;;;;;;21.57;12.03;;;0.50;99.90;;;;;;4261783;27;20279;-60
2024/01/06 03:43:12;;;;;;;22.47;11.20;;;0.60;99.90;;;;;;4261436;27;20274;-64
2024/01/06 03:45:13;;;;;;;22.47;10.97;;;0.60;99.90;;;;;;4261578;27;20278;-62
2024/01/06 03:47:14;;;;;;;15.10;9.37;;;0.60;99.90;;;;;;4261517;27;20290;-63
2024/01/06 03:49:18;;;;;;;16.27;9.37;;;0.70;99.90;;;;;;4261648;27;20259;-60
2024/01/06 03:51:19;;;;;;;17.00;9.10;;;0.70;99.90;;;;;;4260845;27;20274;-61
2024/01/06 03:53:20;;;;;;;18.20;11.17;;;0.80;99.90;;;;;;4260619;27;20267;-61
2024/01/06 03:55:22;;;;;;;22.10;9.90;;;0.80;99.90;;;;;;4261035;27;20271;-61
2024/01/06 03:57:23;;;;;;;19.33;9.77;;;0.80;99.90;;;;;;4261848;27;20267;-61
2024/01/06 03:59:24;;;;;;;16.27;9.50;;;0.90;99.90;;;;;;4261357;27;20259;-61
2024/01/06 04:01:26;;;;;;;15.73;9.33;;;0.90;99.90;;;;;;4261210;27;20319;-61
2024/01/06 04:03:27;;;;;;;18.67;9.70;;;0.90;99.90;;;;;;4261002;27;20259;-60
2024/01/06 04:05:28;;;;;;;17.70;9.30;;;0.90;99.90;;;;;;4260994;27;20267;-66
2024/01/06 04:07:29;;;;;;;14.63;8.47;;;0.90;99.90;;;;;;4259683;27;20290;-61
2024/01/06 04:09:30;;;;;;;17.70;9.40;;;1.00;99.90;;;;;;4260752;27;20323;-62
2024/01/06 04:11:31;;;;;;;19.37;9.83;;;1.00;99.90;;;;;;4261172;27;20266;-61
2024/01/06 04:13:33;;;;;;;15.20;9.00;;;1.00;99.90;;;;;;4261120;27;20323;-62
2024/01/06 04:15:34;;;;;;;18.70;9.93;;;1.00;99.90;;;;;;4260929;27;20323;-62
2024/01/06 04:17:35;;;;;;;17.67;9.40;;;1.00;99.90;;;;;;4260996;27;20266;-65
2024/01/06 04:19:36;;;;;;;17.07;9.43;;;1.00;99.90;;;;;;4261260;27;20292;-62
2024/01/06 04:21:37;;;;;;;17.70;9.53;;;1.00;99.90;;;;;;4261218;27;20266;-63
2024/01/06 04:23:39;;;;;;;22.37;9.63;;;1.10;99.90;;;;;;4260851;27;20259;-62
2024/01/06 04:25:40;;;;;;;16.73;9.43;;;1.10;99.90;;;;;;4261085;27;20254;-62
2024/01/06 04:27:41;;;;;;;17.40;8.70;;;1.10;99.90;;;;;;4260985;27;20759;-63
2024/01/06 04:29:42;;;;;;;17.03;9.20;;;1.10;99.90;;;;;;4260560;27;20335;-63
2024/01/06 04:31:44;;;;;;;17.80;9.07;;;1.10;99.90;;;;;;4260959;27;20664;-63
2024/01/06 04:33:45;;;;;;;22.47;9.00;;;1.20;99.90;;;;;;4260867;27;20686;-62
2024/01/06 04:35:46;;;;;;;19.07;8.93;;;1.20;99.90;;;;;;4260070;27;20271;-64
2024/01/06 04:37:47;;;;;;;19.40;9.10;;;1.20;99.90;;;;;;4260661;27;20731;-62
2024/01/06 04:39:49;;;;;;;13.67;8.63;;;1.20;99.90;;;;;;4261010;27;20661;-63
2024/01/06 04:41:51;;;;;;;19.90;11.07;;;1.30;99.90;;;;;;4260583;27;20327;-63
2024/01/06 04:43:52;;;;;;;20.10;12.00;;;1.30;99.90;;;;;;4260868;27;20644;-60
2024/01/06 04:45:53;;;;;;;20.83;10.93;;;1.30;99.90;;;;;;4260421;27;20267;-61
2024/01/06 04:47:54;;;;;;;16.33;8.27;;;1.40;99.90;;;;;;4260478;27;20363;-61
2024/01/06 04:49:56;;;;;;;15.93;9.17;;;1.40;99.90;;;;;;4260860;27;20656;-61
2024/01/06 04:51:58;;;;;;;14.67;8.33;;;1.50;99.90;;;;;;4261031;27;20759;-63
2024/01/06 04:53:59;;;;;;;14.70;8.13;;;1.50;99.90;;;;;;4260111;27;20659;-62
2024/01/06 04:56:00;;;;;;;16.53;8.83;;;1.60;99.90;;;;;;4259842;27;20656;-62
2024/01/06 04:58:01;;;;;;;13.23;7.60;;;1.60;99.90;;;;;;4260870;27;20251;-60
2024/01/06 05:00:04;;;;;;;15.20;8.60;;;1.60;99.90;;;;;;4260002;27;20311;-62
2024/01/06 05:02:06;;;;;;;16.63;8.63;;;1.70;99.90;;;;;;4260664;27;20255;-62
2024/01/06 05:04:07;;;;;;;13.90;8.67;;;1.70;99.90;;;;;;4260569;27;20676;-61
2024/01/06 05:06:08;;;;;;;17.33;8.40;;;1.80;99.90;;;;;;4260094;27;20275;-60
2024/01/06 05:08:09;;;;;;;15.27;8.13;;;1.80;99.90;;;;;;4260403;27;20290;-62
2024/01/06 05:10:11;;;;;;;21.17;10.93;;;1.90;99.90;;;;;;4258619;27;20271;-60
2024/01/06 05:12:12;;;;;;;16.17;10.70;;;1.90;99.90;;;;;;4260858;27;20258;-62
2024/01/06 05:14:13;;;;;;;19.67;11.23;;;1.90;99.90;;;;;;4260618;27;20346;-63
2024/01/06 05:16:14;;;;;;;15.57;9.53;;;2.00;99.90;;;;;;4260124;27;20583;-64
2024/01/06 05:18:15;;;;;;;15.60;9.30;;;2.00;99.90;;;;;;4259656;27;20279;-60
2024/01/06 05:20:17;;;;;;;13.70;8.97;;;2.10;99.90;;;;;;4260069;27;20303;-63
2024/01/06 05:22:18;;;;;;;15.90;7.47;;;2.00;99.90;;;;;;4260481;27;20267;-62
2024/01/06 05:24:20;;;;;;;13.57;7.53;;;2.10;99.90;;;;;;4259962;27;20319;-60
2024/01/06 05:26:22;;;;;;;12.30;7.20;;;2.10;99.90;;;;;;4260548;27;20247;-63
2024/01/06 05:28:23;;;;;;;13.20;7.70;;;2.10;99.90;;;;;;4259686;27;20336;-61
2024/01/06 05:30:24;;;;;;;15.93;8.87;;;2.10;99.90;;;;;;4258367;27;20271;-63
2024/01/06 05:32:25;;;;;;;13.40;6.93;;;2.10;99.90;;;;;;4257896;27;20263;-61
2024/01/06 05:34:27;;;;;;;12.63;7.87;;;2.10;99.90;;;;;;4259985;27;20267;-62
2024/01/06 05:36:28;;;;;;;13.20;7.37;;;2.10;99.90;;;;;;4259810;27;20286;-63
2024/01/06 05:38:29;;;;;;;13.03;7.70;;;2.10;99.90;;;;;;4260506;27;20282;-62
2024/01/06 05:40:30;;;;;;;10.90;6.67;;;2.10;99.90;;;;;;4260298;27;20275;-61
2024/01/06 05:42:32;;;;;;;14.37;8.67;;;2.10;99.90;;;;;;4260345;27;20594;-62
2024/01/06 05:44:36;;;;;;;14.17;7.17;;;2.10;99.90;;;;;;4259827;27;20283;-63
2024/01/06 05:46:38;;;;;;;15.27;8.13;;;2.10;99.90;;;;;;4259880;27;20316;-62
2024/01/06 05:48:40;;;;;;;14.50;8.47;;;2.00;99.90;;;;;;4260130;27;20279;-62
2024/01/06 05:50:42;;;;;;;12.17;7.30;;;2.00;99.90;;;;;;4259629;27;20335;-62
2024/01/06 05:52:43;;;;;;;13.67;8.53;;;2.00;99.90;;;;;;4260422;27;20262;-64
2024/01/06 05:54:44;;;;;;;12.27;7.80;;;2.00;99.90;;;;;;4260386;27;20885;-63
2024/01/06 05:56:45;;;;;;;16.63;9.00;;;2.00;99.90;;;;;;4259816;27;20342;-62
2024/01/06 05:58:47;;;;;;;15.70;8.20;;;2.00;99.90;;;;;;4259951;27;20271;-63
2024/01/06 06:00:48;;;;;;;14.50;7.87;;;2.00;99.90;;;;;;4259713;27;20287;-61
2024/01/06 06:02:49;;;;;;;13.10;7.60;;;2.00;99.90;;;;;;4259147;27;20298;-61
2024/01/06 06:04:52;;;;;;;12.10;7.30;;;2.00;99.90;;;;;;4259329;27;20267;-60
2024/01/06 06:06:53;;;;;;;12.20;7.33;;;2.00;99.90;;;;;;4259910;27;20274;-60
2024/01/06 06:08:54;;;;;;;12.87;7.87;;;2.00;99.90;;;;;;4259413;27;20294;-62
2024/01/06 06:11:01;;;;;;;13.73;7.47;;;2.10;99.90;;;;;;4258105;27;20324;-62
2024/01/06 06:13:03;;;;;;;14.97;7.83;;;2.10;99.90;;;;;;4259447;27;20263;-60
2024/01/06 06:15:06;;;;;;;14.40;8.03;;;2.10;99.90;;;;;;4261259;27;20354;-61
2024/01/06 06:17:07;;;;;;;10.53;6.57;;;2.20;99.90;;;;;;4263172;27;20270;-60
2024/01/06 06:19:08;;;;;;;13.90;6.80;;;2.30;99.90;;;;;;4263163;27;20262;-61
2024/01/06 06:21:09;;;;;;;10.33;7.23;;;2.30;99.90;;;;;;4262470;27;20327;-60
2024/01/06 06:23:11;;;;;;;14.10;7.33;;;2.40;99.90;;;;;;4262478;27;20367;-60
2024/01/06 06:25:13;;;;;;;13.90;7.20;;;2.40;99.90;;;;;;4262214;27;20327;-61
2024/01/06 06:27:14;;;;;;;15.43;7.63;;;2.40;99.90;;;;;;4262222;27;20270;-61
2024/01/06 06:29:15;;;;;;;12.60;6.03;;;2.40;99.90;;;;;;4262746;27;20286;-60
2024/01/06 06:31:16;;;;;;;12.03;6.57;;;2.50;99.90;;;;;;4262348;27;20657;-61
2024/01/06 06:33:17;;;;;;;14.77;6.93;;;2.50;99.90;;;;;;4261554;27;20323;-61
2024/01/06 06:35:19;;;;;;;15.93;8.67;;;2.60;99.90;;;;;;4262125;27;20727;-61
2024/01/06 06:37:20;;;;;;;13.43;7.97;;;2.70;99.90;;;;;;4262768;27;20319;-62
2024/01/06 06:39:22;;;;;;;10.63;6.80;;;2.70;99.90;;;;;;4260501;27;20670;-61
2024/01/06 06:41:23;;;;;;;11.67;6.80;;;2.80;99.90;;;;;;4262383;27;20259;-61
2024/01/06 06:43:24;;;;;;;10.53;5.93;;;2.90;99.90;;;;;;4262709;27;20262;-62
2024/01/06 06:45:25;;;;;;;10.60;5.80;;;3.00;99.90;;;;;;4261913;27;20271;-60
2024/01/06 06:47:26;;;;;;;10.83;5.53;;;3.00;99.90;;;;;;4262666;27;20275;-61
2024/01/06 06:49:28;;;;;;;8.17;5.20;;;3.10;99.90;;;;;;4262505;27;20924;-60
2024/01/06 06:51:30;;;;;;;10.67;5.77;;;3.10;99.90;;;;;;4261167;27;20271;-61
2024/01/06 06:53:31;;;;;;;11.93;5.50;;;3.10;99.90;;;;;;4261558;27;20270;-63
2024/01/06 06:55:32;;;;;;;11.37;5.43;;;3.20;99.90;;;;;;4261825;27;20328;-60
2024/01/06 06:57:33;;;;;;;10.97;6.60;;;3.20;99.90;;;;;;4261838;27;20343;-63
2024/01/06 06:59:34;;;;;;;11.50;6.47;;;3.20;99.90;;;;;;4260124;27;20259;-60
2024/01/06 07:01:36;;;;;;;10.70;6.67;;;3.20;99.90;;;;;;4260028;27;20696;-62
2024/01/06 07:03:37;;;;;;;16.40;6.83;;;3.20;99.90;;;;;;4261852;27;20262;-61
2024/01/06 07:05:39;;;;;;;13.50;6.60;;;3.30;99.90;;;;;;4260782;27;20312;-62
2024/01/06 07:07:40;;;;;;;11.40;7.47;;;3.30;99.90;;;;;;4261524;27;20266;-62
2024/01/06 07:09:41;;;;;;;12.73;7.07;;;3.30;99.90;;;;;;4259232;27;20359;-62
2024/01/06 07:11:42;;;;;;;12.20;6.83;;;3.40;99.90;;;;;;4261345;27;20258;-61
2024/01/06 07:13:44;;;;;;;14.33;6.57;;;3.40;99.90;;;;;;4260056;27;20258;-63
2024/01/06 07:15:45;;;;;;;13.33;6.70;;;3.40;99.90;;;;;;4261176;27;20334;-63
2024/01/06 07:17:47;;;;;;;11.60;5.90;;;3.50;99.90;;;;;;4260214;27;20754;-62
2024/01/06 07:19:48;;;;;;;13.60;7.93;;;3.50;99.90;;;;;;4259896;27;20267;-64
2024/01/06 07:21:49;;;;;;;11.73;6.77;;;3.40;99.90;;;;;;4261414;27;20259;-63
2024/01/06 07:23:51;;;;;;;15.33;7.07;;;3.40;99.90;;;;;;4259993;27;20288;-62
2024/01/06 07:25:52;;;;;;;10.93;5.97;;;3.40;99.90;;;;;;4261348;27;20777;-62
2024/01/06 07:27:53;;;;;;;12.30;5.97;;;3.40;99.90;;;;;;4260965;27;20334;-63
2024/01/06 07:29:55;;;;;;;9.37;5.77;;;3.30;99.90;;;;;;4261023;27;20668;-61
2024/01/06 07:31:57;;;;;;;9.63;5.40;;;3.30;99.90;;;;;;4261310;27;20285;-63
2024/01/06 07:33:58;;;;;;;10.03;5.70;;;3.30;99.90;;;;;;4261198;27;20307;-62
2024/01/06 07:35:59;;;;;;;8.63;5.60;;;3.30;99.90;;;;;;4261590;27;20255;-62
2024/01/06 07:38:00;;;;;;;11.90;6.40;;;3.30;99.90;;;;;;4260613;27;20368;-63
2024/01/06 07:40:01;;;;;;;12.00;5.83;;;3.30;99.90;;;;;;4260886;27;20263;-63
2024/01/06 07:42:03;;;;;;;14.77;7.27;;;3.30;99.90;;;;;;4261334;27;20263;-63
2024/01/06 07:44:04;;;;;;;13.17;6.90;;;3.30;99.90;;;;;;4260290;27;20266;-64
2024/01/06 07:46:06;;;;;;;15.53;7.13;;;3.40;99.90;;;;;;4260921;27;20255;-62
2024/01/06 07:48:08;;;;;;;11.73;5.80;;;3.40;99.90;;;;;;4261271;27;20290;-62
2024/01/06 07:50:09;;;;;;;14.97;7.73;;;3.40;99.90;;;;;;4261514;27;20315;-65
2024/01/06 07:52:10;;;;;;;11.93;6.73;;;3.50;99.90;;;;;;4260665;27;20307;-62
2024/01/06 07:54:12;;;;;;;15.70;8.20;;;3.50;99.90;;;;;;4260491;27;20316;-62
2024/01/06 07:56:13;;;;;;;18.53;9.47;;;3.50;99.90;;;;;;4260458;27;20270;-63
2024/01/06 07:58:14;;;;;;;22.93;8.00;;;3.50;99.90;;;;;;4261547;27;20263;-64
2024/01/06 08:00:16;;;;;;;17.83;7.73;;;3.50;99.90;;;;;;4258703;27;20378;-63
2024/01/06 08:02:17;;;;;;;18.37;9.37;;;3.60;99.90;;;;;;4261943;27;20262;-62
2024/01/06 08:04:18;;;;;;;14.83;8.47;;;3.60;99.90;;;;;;4260413;27;20295;-63
2024/01/06 08:06:19;;;;;;;39.53;17.43;;;3.70;99.90;;;;;;4261636;27;20267;-62
2024/01/06 08:08:20;;;;;;;16.97;8.80;;;3.70;99.90;;;;;;4260876;27;20320;-61
2024/01/06 08:10:22;;;;;;;18.60;9.00;;;3.70;99.90;;;;;;4260584;27;20271;-65
2024/01/06 08:12:23;;;;;;;16.80;8.37;;;3.70;99.90;;;;;;4260184;27;20259;-62
2024/01/06 08:14:24;;;;;;;12.50;7.50;;;3.80;99.90;;;;;;4261154;27;20311;-64
2024/01/06 08:16:26;;;;;;;14.57;6.60;;;3.80;99.90;;;;;;4260813;27;20266;-64
2024/01/06 08:18:27;;;;;;;13.03;7.03;;;3.90;99.90;;;;;;4260791;27;20680;-62
2024/01/06 08:20:28;;;;;;;12.10;6.47;;;3.90;99.90;;;;;;4260868;27;20343;-65
2024/01/06 08:22:30;;;;;;;16.33;8.37;;;4.00;99.90;;;;;;4260986;27;20334;-65
2024/01/06 08:24:31;;;;;;;12.33;6.47;;;4.00;99.90;;;;;;4260968;27;20267;-68
2024/01/06 08:26:32;;;;;;;12.13;6.80;;;4.00;99.90;;;;;;4260816;27;20263;-67
2024/01/06 08:28:33;;;;;;;11.87;7.07;;;4.00;99.90;;;;;;4258891;27;20283;-67
2024/01/06 08:30:35;;;;;;;17.57;9.30;;;3.90;99.90;;;;;;4260216;27;20270;-62
2024/01/06 08:32:36;;;;;;;13.53;8.10;;;3.90;99.90;;;;;;4260438;27;20258;-65
2024/01/06 08:34:38;;;;;;;18.63;10.30;;;3.80;99.90;;;;;;4260226;27;20267;-66
2024/01/06 08:36:41;;;;;;;24.83;15.20;;;3.80;99.90;;;;;;4259668;27;21063;-65
2024/01/06 08:38:42;;;;;;;25.80;16.80;;;3.70;99.90;;;;;;4234406;27;20280;-63
2024/01/06 08:40:47;;;;;;;26.90;17.10;;;3.70;99.90;;;;;;4258621;27;20687;-65
2024/01/06 08:42:49;;;;;;;28.70;18.73;;;3.60;99.90;;;;;;4260284;27;20652;-65
2024/01/06 08:44:50;;;;;;;37.00;21.87;;;3.60;99.90;;;;;;4259670;27;20766;-63
2024/01/06 08:46:51;;;;;;;32.30;22.83;;;3.60;99.90;;;;;;4259585;27;20278;-64
2024/01/06 08:48:52;;;;;;;32.23;21.77;;;3.60;99.90;;;;;;4260443;27;20279;-65
2024/01/06 08:50:53;;;;;;;36.27;22.37;;;3.60;99.90;;;;;;4259861;27;20251;-65
2024/01/06 08:52:55;;;;;;;30.80;21.80;;;3.70;99.90;;;;;;4260474;27;20262;-69
2024/01/06 08:54:56;;;;;;;32.43;21.13;;;3.80;99.90;;;;;;4260342;27;20256;-67
2024/01/06 08:56:57;;;;;;;31.53;20.60;;;3.80;99.90;;;;;;4258696;27;20307;-62
2024/01/06 08:58:59;;;;;;;26.50;19.43;;;3.90;99.90;;;;;;4260493;27;20316;-63
2024/01/06 09:01:00;;;;;;;33.43;21.10;;;3.90;99.90;;;;;;4257919;27;20316;-63
2024/01/06 09:03:01;;;;;;;31.30;21.93;;;3.90;99.90;;;;;;4259370;27;20315;-60
2024/01/06 09:05:02;;;;;;;32.50;20.93;;;4.00;99.90;;;;;;4260401;27;20312;-65
2024/01/06 09:07:03;;;;;;;39.43;21.70;;;4.10;99.90;;;;;;4260183;27;20305;-62
2024/01/06 09:09:05;;;;;;;33.37;19.57;;;4.10;99.90;;;;;;4260211;27;20290;-62
2024/01/06 09:11:06;;;;;;;25.63;17.00;;;4.20;99.90;;;;;;4259867;27;20595;-62
2024/01/06 09:13:08;;;;;;;33.83;18.23;;;4.20;99.90;;;;;;4260217;27;20274;-63
2024/01/06 09:15:09;;;;;;;31.97;19.73;;;4.20;99.90;;;;;;4260153;27;20307;-63
2024/01/06 09:17:11;;;;;;;27.60;16.57;;;4.20;99.90;;;;;;4260341;27;20723;-63
2024/01/06 09:19:12;;;;;;;28.23;15.80;;;4.20;99.90;;;;;;4260360;27;20255;-61
2024/01/06 09:21:13;;;;;;;25.60;14.23;;;4.30;99.90;;;;;;4259815;27;20262;-63
2024/01/06 09:23:15;;;;;;;19.13;11.63;;;4.30;99.90;;;;;;4260291;27;20338;-62
2024/01/06 09:25:16;;;;;;;19.50;12.07;;;4.40;99.90;;;;;;4260196;27;20331;-62
2024/01/06 09:27:18;;;;;;;22.27;13.23;;;4.40;99.90;;;;;;4260000;27;20315;-69
2024/01/06 09:29:19;;;;;;;14.77;8.33;;;4.50;99.90;;;;;;4259711;27;20417;-65
2024/01/06 09:31:20;;;;;;;11.37;7.60;;;4.50;99.90;;;;;;4260208;27;20312;-63
2024/01/06 09:33:22;;;;;;;9.97;4.60;;;4.60;99.90;;;;;;4260420;27;20071;-62
2024/01/06 09:35:24;;;;;;;9.83;3.80;;;4.70;99.90;;;;;;4259046;27;20266;-63
2024/01/06 09:37:25;;;;;;;7.23;4.23;;;4.70;99.90;;;;;;4260253;27;20683;-64
2024/01/06 09:39:26;;;;;;;7.97;4.17;;;4.80;99.90;;;;;;4259508;27;20278;-67
2024/01/06 09:41:27;;;;;;;8.77;5.20;;;4.90;99.90;;;;;;4260366;27;20258;-64
2024/01/06 09:43:30;;;;;;;12.37;6.07;;;4.90;99.90;;;;;;4259518;27;20311;-61
2024/01/06 09:45:31;;;;;;;27.40;11.10;;;4.90;99.90;;;;;;4259748;27;20664;-65
2024/01/06 09:47:34;;;;;;;19.77;8.70;;;5.00;99.90;;;;;;4258155;27;20823;-66
2024/01/06 09:49:39;;;;;;;17.10;8.77;;;5.10;99.90;;;;;;4260993;27;20035;-63
2024/01/06 09:51:40;;;;;;;12.13;7.33;;;5.10;99.90;;;;;;4262811;27;20821;-61
2024/01/06 09:53:58;;;;;;;17.23;9.37;;;5.20;99.90;;;;;;4263170;27;20035;-63
2024/01/06 09:56:00;;;;;;;12.97;8.80;;;5.20;99.90;;;;;;4262157;27;20312;-62
2024/01/06 09:58:01;;;;;;;172.03;63.00;;;5.20;99.90;;;;;;4262764;27;20644;-64
2024/01/06 10:00:04;;;;;;;19.57;11.17;;;5.30;99.90;;;;;;4262235;27;20023;-61
2024/01/06 10:02:05;;;;;;;36.97;19.70;;;5.30;99.90;;;;;;4263326;27;20030;-64
2024/01/06 10:04:06;;;;;;;14.37;8.17;;;5.30;99.90;;;;;;4262901;27;20115;-64
2024/01/06 10:06:09;;;;;;;17.53;9.30;;;5.40;99.90;;;;;;4262896;27;20079;-65
2024/01/06 10:08:10;;;;;;;25.27;10.93;;;5.40;99.90;;;;;;4262605;27;20084;-64
2024/01/06 10:10:12;;;;;;;45.30;18.07;;;5.40;99.90;;;;;;4262486;27;21200;-66
2024/01/06 10:12:13;;;;;;;21.27;9.67;;;5.40;99.90;;;;;;4262631;27;20467;-61
2024/01/06 10:14:14;;;;;;;33.97;15.17;;;5.50;99.90;;;;;;4262514;27;20071;-64
2024/01/06 10:16:15;;;;;;;17.33;8.60;;;5.50;99.90;;;;;;4262674;27;20046;-63
2024/01/06 10:18:17;;;;;;;15.70;8.30;;;5.60;99.90;;;;;;4260278;27;20079;-61
2024/01/06 10:20:19;;;;;;;16.53;7.40;;;5.70;99.90;;;;;;4262523;27;20034;-64
2024/01/06 10:22:21;;;;;;;21.40;11.40;;;5.80;99.90;;;;;;4262244;27;20046;-63
2024/01/06 10:24:22;;;;;;;12.83;7.20;;;5.80;99.90;;;;;;4262689;27;20082;-62
2024/01/06 10:26:23;;;;;;;16.00;8.40;;;6.00;99.90;;;;;;4262187;27;20075;-61